Time;durP1;ratioP1;P1;durP2;ratioP2;P2;SDS_P1;SDS_P2;PMS_P1;PMS_P2;Temp;Humidity;BMP_temperature;BMP_pressure;BME280_temperature;BME280_humidity;BME280_pressure;Samples;Min_cycle;Max_cycle;Signal;HPM_P1;HPM_P2
2022/11/07 05:47:33;;;;;;;;;;;21.90;63.30;;;;;;6122586;23;20337;-63
2022/11/07 05:49:59;;;;;;;;;;;22.00;63.50;;;;;;6124410;23;19913;-63
2022/11/07 05:52:26;;;;;;;;;;;21.90;63.70;;;;;;6125510;23;20383;-65
2022/11/07 05:54:52;;;;;;;;;;;21.90;62.60;;;;;;6099958;23;19912;-63
2022/11/07 05:57:19;;;;;;;;;;;21.90;62.00;;;;;;6099492;23;19945;-64
2022/11/07 05:59:46;;;;;;;;;;;21.80;62.50;;;;;;6125222;23;19935;-63
2022/11/07 06:02:12;;;;;;;;;;;21.80;60.70;;;;;;6125327;23;20246;-63
2022/11/07 06:04:39;;;;;;;;;;;21.80;60.50;;;;;;6123480;23;19941;-63
2022/11/07 06:07:05;;;;;;;;;;;21.80;61.40;;;;;;6123137;23;19908;-63
2022/11/07 06:09:32;;;;;;;;;;;21.80;62.20;;;;;;6123115;23;19905;-63
2022/11/07 06:11:58;;;;;;;;;;;21.80;63.00;;;;;;6123372;23;19905;-64
2022/11/07 06:14:25;;;;;;;;;;;21.70;63.80;;;;;;6123428;23;19912;-64
2022/11/07 06:16:52;;;;;;;;;;;21.60;64.10;;;;;;6093745;23;19991;-63
2022/11/07 06:19:18;;;;;;;;;;;21.60;65.00;;;;;;6121806;23;19955;-64
2022/11/07 06:21:45;;;;;;;;;;;21.60;66.10;;;;;;6122207;23;20284;-64
2022/11/07 06:24:12;;;;;;;;;;;21.50;64.80;;;;;;6122053;23;20332;-64
2022/11/07 06:26:38;;;;;;;;;;;21.50;65.40;;;;;;6122540;23;19933;-64
2022/11/07 06:29:05;;;;;;;;;;;21.50;66.50;;;;;;6122274;23;19908;-64
2022/11/07 06:31:31;;;;;;;;;;;21.40;66.90;;;;;;6122740;23;20307;-64
2022/11/07 06:33:58;;;;;;;;;;;21.40;66.40;;;;;;6121476;23;19980;-64
2022/11/07 06:36:25;;;;;;;;;;;21.40;67.20;;;;;;6122115;23;19916;-64
2022/11/07 06:38:52;;;;;;;;;;;21.30;67.60;;;;;;6121808;23;20248;-63
2022/11/07 06:41:18;;;;;;;;;;;21.30;67.60;;;;;;6122267;23;19916;-63
2022/11/07 06:43:45;;;;;;;;;;;21.30;67.30;;;;;;6122586;23;19920;-63
2022/11/07 06:46:12;;;;;;;;;;;21.30;67.40;;;;;;6122343;23;19937;-63
2022/11/07 06:48:39;;;;;;;;;;;21.20;67.30;;;;;;6096802;23;19916;-64
2022/11/07 06:51:05;;;;;;;;;;;21.30;67.20;;;;;;6119562;23;19915;-63
2022/11/07 06:53:32;;;;;;;;;;;21.20;67.50;;;;;;6121743;23;19964;-64
2022/11/07 06:55:59;;;;;;;;;;;21.20;68.00;;;;;;6096312;23;19923;-63
2022/11/07 06:58:25;;;;;;;;;;;21.20;67.70;;;;;;6122341;23;19913;-64
2022/11/07 07:00:52;;;;;;;;;;;21.20;67.10;;;;;;6122240;23;19909;-64
2022/11/07 07:03:19;;;;;;;;;;;21.10;67.50;;;;;;6121993;23;19909;-64
2022/11/07 07:05:45;;;;;;;;;;;21.00;67.50;;;;;;6121931;23;20286;-64
2022/11/07 07:08:13;;;;;;;;;;;21.00;67.50;;;;;;6122076;23;19909;-64
2022/11/07 07:10:43;;;;;;;;;;;21.00;67.40;;;;;;6121826;23;20647;-64
2022/11/07 07:13:10;;;;;;;;;;;21.00;67.10;;;;;;6122286;23;20110;-65
2022/11/07 07:15:37;;;;;;;;;;;21.00;67.50;;;;;;6121498;23;19936;-64
2022/11/07 07:18:04;;;;;;;;;;;21.00;67.50;;;;;;6121608;23;19917;-66
2022/11/07 07:20:30;;;;;;;;;;;21.00;67.90;;;;;;6121524;23;20376;-64
2022/11/07 07:22:57;;;;;;;;;;;20.90;67.20;;;;;;6121154;23;19913;-64
2022/11/07 07:25:25;;;;;;;;;;;21.00;67.50;;;;;;6121907;23;19912;-66
2022/11/07 07:27:51;;;;;;;;;;;20.90;68.00;;;;;;6095788;23;20398;-65
2022/11/07 07:30:18;;;;;;;;;;;20.90;68.00;;;;;;6122242;23;19916;-64
2022/11/07 07:32:44;;;;;;;;;;;20.80;68.20;;;;;;6121978;23;19905;-64
2022/11/07 07:35:11;;;;;;;;;;;20.80;68.00;;;;;;6122091;23;19911;-64
2022/11/07 07:37:38;;;;;;;;;;;20.80;67.90;;;;;;6121662;23;19936;-64
2022/11/07 07:40:04;;;;;;;;;;;20.80;68.10;;;;;;6121496;23;19988;-64
2022/11/07 07:42:31;;;;;;;;;;;20.80;68.30;;;;;;6096562;23;19964;-64
2022/11/07 07:44:57;;;;;;;;;;;20.80;68.20;;;;;;6122106;23;19909;-64
2022/11/07 07:47:24;;;;;;;;;;;20.80;68.00;;;;;;6121798;23;20348;-64
2022/11/07 07:49:51;;;;;;;;;;;20.80;68.20;;;;;;6122315;23;20342;-64
2022/11/07 07:52:17;;;;;;;;;;;20.80;68.30;;;;;;6119087;23;19905;-64
2022/11/07 07:54:44;;;;;;;;;;;20.70;68.50;;;;;;6121388;23;19905;-65
2022/11/07 07:57:10;;;;;;;;;;;20.70;68.80;;;;;;6121940;23;19928;-65
2022/11/07 07:59:37;;;;;;;;;;;20.70;69.20;;;;;;6121780;23;20391;-65
2022/11/07 08:02:04;;;;;;;;;;;20.60;69.20;;;;;;6122203;23;19905;-65
2022/11/07 08:04:30;;;;;;;;;;;20.60;69.50;;;;;;6121947;23;19905;-64
2022/11/07 08:06:57;;;;;;;;;;;20.60;69.50;;;;;;6123789;23;19909;-64
2022/11/07 08:09:23;;;;;;;;;;;20.50;69.80;;;;;;6124227;23;20351;-64
2022/11/07 08:11:50;;;;;;;;;;;20.60;70.00;;;;;;6123710;23;19941;-64
2022/11/07 08:14:17;;;;;;;;;;;20.50;70.40;;;;;;6123800;23;19991;-65
2022/11/07 08:16:43;;;;;;;;;;;20.50;70.50;;;;;;6123717;23;20008;-64
2022/11/07 08:19:10;;;;;;;;;;;20.50;70.50;;;;;;6123738;23;19913;-64
2022/11/07 08:21:36;;;;;;;;;;;20.40;70.60;;;;;;6123629;23;19962;-64
2022/11/07 08:24:03;;;;;;;;;;;20.40;70.50;;;;;;6123513;23;19912;-64
2022/11/07 08:26:30;;;;;;;;;;;20.40;70.60;;;;;;6123420;23;20313;-64
2022/11/07 08:28:56;;;;;;;;;;;20.40;70.60;;;;;;6123354;23;19991;-65
2022/11/07 08:31:23;;;;;;;;;;;20.40;70.60;;;;;;6122853;23;20272;-65
2022/11/07 08:33:50;;;;;;;;;;;20.40;70.70;;;;;;6123181;23;20358;-64
2022/11/07 08:36:16;;;;;;;;;;;20.40;70.70;;;;;;6123835;23;19909;-65
2022/11/07 08:38:43;;;;;;;;;;;20.40;71.20;;;;;;6098305;23;19909;-65
2022/11/07 08:41:09;;;;;;;;;;;20.30;71.10;;;;;;6123395;23;19932;-64
2022/11/07 08:43:36;;;;;;;;;;;20.30;71.20;;;;;;6122928;23;20244;-65
2022/11/07 08:46:03;;;;;;;;;;;20.30;70.80;;;;;;6123487;23;19908;-65
2022/11/07 08:48:29;;;;;;;;;;;20.30;70.70;;;;;;6123033;23;19989;-65
2022/11/07 08:50:56;;;;;;;;;;;20.30;70.80;;;;;;6094444;23;20407;-66
2022/11/07 08:53:23;;;;;;;;;;;20.30;71.10;;;;;;6123146;23;19940;-65
2022/11/07 08:55:50;;;;;;;;;;;20.20;70.60;;;;;;6097352;23;19942;-66
2022/11/07 08:58:17;;;;;;;;;;;20.20;70.10;;;;;;6097481;23;20327;-65
2022/11/07 09:00:44;;;;;;;;;;;20.20;70.10;;;;;;6123388;23;20303;-65
2022/11/07 09:03:12;;;;;;;;;;;20.20;70.10;;;;;;6097396;23;19996;-65
2022/11/07 09:05:39;;;;;;;;;;;20.20;70.00;;;;;;6123780;23;19916;-66
2022/11/07 09:08:05;;;;;;;;;;;20.20;70.10;;;;;;6123126;23;19909;-63
2022/11/07 09:10:32;;;;;;;;;;;20.20;70.20;;;;;;6097602;23;19909;-64
2022/11/07 09:12:59;;;;;;;;;;;20.20;70.30;;;;;;6122758;23;20217;-64
2022/11/07 09:15:25;;;;;;;;;;;20.20;70.40;;;;;;6122435;23;20329;-64
2022/11/07 09:17:52;;;;;;;;;;;20.10;70.30;;;;;;6122529;23;19919;-65
2022/11/07 09:20:19;;;;;;;;;;;20.10;70.40;;;;;;6122782;23;19955;-64
2022/11/07 09:22:45;;;;;;;;;;;20.20;70.40;;;;;;6122925;23;19908;-64
2022/11/07 09:25:12;;;;;;;;;;;20.10;70.60;;;;;;6122847;23;20239;-63
2022/11/07 09:27:38;;;;;;;;;;;20.10;70.80;;;;;;6122083;23;19954;-63
2022/11/07 09:30:05;;;;;;;;;;;20.10;70.70;;;;;;6122574;23;19909;-65
2022/11/07 09:32:32;;;;;;;;;;;20.10;70.40;;;;;;6122553;23;19980;-64
2022/11/07 09:34:59;;;;;;;;;;;20.10;70.50;;;;;;6096538;23;19963;-65
2022/11/07 09:37:27;;;;;;;;;;;20.10;70.80;;;;;;6122200;23;19917;-63
2022/11/07 09:39:53;;;;;;;;;;;20.10;70.20;;;;;;6122739;23;19905;-63
2022/11/07 09:42:24;;;;;;;;;;;20.00;69.80;;;;;;6122915;23;19960;-62
2022/11/07 09:44:54;;;;;;;;;;;20.00;69.80;;;;;;6097395;23;19920;-63
2022/11/07 09:47:22;;;;;;;;;;;20.00;69.80;;;;;;6096301;23;19951;-64
2022/11/07 09:49:50;;;;;;;;;;;20.00;70.10;;;;;;6096648;23;19905;-64
2022/11/07 09:52:37;;;;;;;;;;;20.00;70.10;;;;;;6125524;23;20244;-64
2022/11/07 09:55:09;;;;;;;;;;;19.90;70.10;;;;;;6125321;23;20244;-64
2022/11/07 09:57:35;;;;;;;;;;;19.90;70.30;;;;;;6099518;23;19925;-64
2022/11/07 10:00:10;;;;;;;;;;;19.90;70.10;;;;;;6124064;23;21309;-64
2022/11/07 10:02:40;;;;;;;;;;;19.90;70.00;;;;;;6125828;23;20162;-63
2022/11/07 10:05:09;;;;;;;;;;;19.80;69.80;;;;;;6099958;23;19905;-63
2022/11/07 10:07:54;;;;;;;;;;;19.80;70.10;;;;;;6100021;23;19905;-64
2022/11/07 10:10:33;;;;;;;;;;;19.80;69.90;;;;;;6125606;23;20225;-63
2022/11/07 10:13:22;;;;;;;;;;;19.80;70.30;;;;;;6125321;23;19905;-64
2022/11/07 10:15:52;;;;;;;;;;;19.80;70.40;;;;;;6114115;23;20348;-64
2022/11/07 10:18:31;;;;;;;;;;;19.80;70.50;;;;;;6125458;23;19909;-64
2022/11/07 10:21:18;;;;;;;;;;;19.80;70.30;;;;;;6099611;23;19949;-63
2022/11/07 10:23:57;;;;;;;;;;;19.80;70.40;;;;;;6099417;23;19913;-64
2022/11/07 10:26:24;;;;;;;;;;;19.80;70.20;;;;;;6125175;23;19983;-64
2022/11/07 10:28:57;;;;;;;;;;;19.70;70.00;;;;;;6098061;23;19905;-63
2022/11/07 10:31:24;;;;;;;;;;;19.80;70.00;;;;;;6122166;23;20328;-64
2022/11/07 10:33:53;;;;;;;;;;;19.80;69.60;;;;;;6100015;23;19908;-64
2022/11/07 10:36:23;;;;;;;;;;;19.80;69.30;;;;;;6125724;23;19909;-64
2022/11/07 10:38:50;;;;;;;;;;;19.80;69.40;;;;;;6125053;23;19909;-64
2022/11/07 10:41:18;;;;;;;;;;;19.80;69.50;;;;;;6099877;23;20286;-64
2022/11/07 10:43:48;;;;;;;;;;;19.70;69.70;;;;;;6125762;23;19905;-64
2022/11/07 10:46:25;;;;;;;;;;;19.70;69.40;;;;;;6124896;23;19976;-64
2022/11/07 10:48:55;;;;;;;;;;;19.70;69.40;;;;;;6099508;23;19924;-63
2022/11/07 10:51:41;;;;;;;;;;;19.70;69.40;;;;;;6125719;23;19940;-64
2022/11/07 10:54:26;;;;;;;;;;;19.80;69.70;;;;;;6125531;23;19927;-64
2022/11/07 10:57:02;;;;;;;;;;;19.70;70.20;;;;;;6125182;23;19979;-64
2022/11/07 10:59:29;;;;;;;;;;;19.80;70.20;;;;;;6125394;23;19936;-64
2022/11/07 11:01:56;;;;;;;;;;;19.80;70.40;;;;;;6099852;23;19955;-64
2022/11/07 11:04:32;;;;;;;;;;;19.80;70.50;;;;;;6099868;23;19912;-64
2022/11/07 11:06:59;;;;;;;;;;;19.70;69.70;;;;;;6125415;23;20312;-64
2022/11/07 11:09:30;;;;;;;;;;;19.80;69.40;;;;;;6125657;23;20217;-65
2022/11/07 11:11:56;;;;;;;;;;;19.70;69.60;;;;;;6125669;23;19905;-64
2022/11/07 11:14:23;;;;;;;;;;;19.70;69.60;;;;;;6125239;23;20347;-64
2022/11/07 11:16:53;;;;;;;;;;;19.70;69.60;;;;;;6125267;23;19996;-64
2022/11/07 11:19:27;;;;;;;;;;;19.70;69.30;;;;;;6099784;23;19913;-63
2022/11/07 11:21:54;;;;;;;;;;;19.70;69.40;;;;;;6125503;23;19911;-64
2022/11/07 11:24:38;;;;;;;;;;;19.70;69.30;;;;;;6125441;23;19905;-64
2022/11/07 11:27:14;;;;;;;;;;;19.70;69.50;;;;;;6125125;23;19909;-64
2022/11/07 11:29:43;;;;;;;;;;;19.70;69.80;;;;;;6125283;23;19909;-64
2022/11/07 11:32:36;;;;;;;;;;;19.70;69.70;;;;;;6125307;23;19925;-64
2022/11/07 11:35:17;;;;;;;;;;;19.70;69.70;;;;;;6120835;23;19952;-64
2022/11/07 11:37:46;;;;;;;;;;;19.70;69.70;;;;;;6125388;23;19913;-63
2022/11/07 11:40:22;;;;;;;;;;;19.70;69.70;;;;;;6102374;23;20340;-63
2022/11/07 11:42:50;;;;;;;;;;;19.70;69.80;;;;;;6128573;23;20244;-64
2022/11/07 11:45:48;;;;;;;;;;;19.70;69.90;;;;;;6102560;23;20236;-64
2022/11/07 11:48:14;;;;;;;;;;;19.70;70.30;;;;;;6102263;23;19936;-64
2022/11/07 11:50:43;;;;;;;;;;;19.70;70.70;;;;;;6128067;23;19956;-64
2022/11/07 11:53:14;;;;;;;;;;;19.70;71.30;;;;;;6128444;23;19905;-64
2022/11/07 11:55:43;;;;;;;;;;;19.60;71.30;;;;;;6102659;23;19905;-64
2022/11/07 11:58:28;;;;;;;;;;;19.70;71.70;;;;;;6128606;23;19913;-64
2022/11/07 12:01:16;;;;;;;;;;;19.70;72.00;;;;;;6128155;23;19905;-64
2022/11/07 12:04:12;;;;;;;;;;;19.70;72.10;;;;;;6102265;23;19931;-64
2022/11/07 12:06:39;;;;;;;;;;;19.70;72.70;;;;;;6049316;23;19961;-64
2022/11/07 12:09:09;;;;;;;;;;;19.70;72.80;;;;;;6128414;23;19905;-64
2022/11/07 12:11:42;;;;;;;;;;;19.70;73.50;;;;;;6128376;23;19912;-64
2022/11/07 12:14:47;;;;;;;;;;;19.70;73.60;;;;;;6102760;23;19913;-63
2022/11/07 12:17:18;;;;;;;;;;;19.70;73.50;;;;;;6038676;23;19918;-64
2022/11/07 12:19:46;;;;;;;;;;;19.70;73.50;;;;;;6015331;23;19906;-64
2022/11/07 12:22:31;;;;;;;;;;;19.70;72.40;;;;;;6061078;23;19909;-64
2022/11/07 12:24:58;;;;;;;;;;;19.70;72.20;;;;;;6128476;23;19976;-64
2022/11/07 12:27:34;;;;;;;;;;;19.70;72.00;;;;;;6128140;23;19912;-64
2022/11/07 12:30:07;;;;;;;;;;;19.70;71.80;;;;;;6102219;23;20320;-64
2022/11/07 12:32:34;;;;;;;;;;;19.80;72.00;;;;;;6102372;23;20312;-64
2022/11/07 12:35:04;;;;;;;;;;;19.80;72.10;;;;;;6128290;23;19908;-64
2022/11/07 12:37:48;;;;;;;;;;;19.70;72.60;;;;;;6128616;23;19988;-64
2022/11/07 12:40:15;;;;;;;;;;;19.70;73.10;;;;;;6128365;23;20321;-64
2022/11/07 12:42:48;;;;;;;;;;;19.70;73.70;;;;;;6128598;23;19987;-64
2022/11/07 12:45:17;;;;;;;;;;;19.70;74.30;;;;;;6127931;23;19954;-64
2022/11/07 12:47:47;;;;;;;;;;;19.50;78.60;;;;;;6128099;23;19917;-64
2022/11/07 12:50:17;;;;;;;;;;;19.20;81.50;;;;;;6127681;23;19904;-64
2022/11/07 12:52:43;;;;;;;;;;;18.80;82.30;;;;;;6101131;23;19960;-65
2022/11/07 12:55:23;;;;;;;;;;;18.50;84.40;;;;;;6126100;23;19909;-66
2022/11/07 12:57:50;;;;;;;;;;;18.20;85.50;;;;;;6100859;23;19913;-66
2022/11/07 13:00:17;;;;;;;;;;;17.90;88.90;;;;;;6100999;23;20276;-67
2022/11/07 13:02:51;;;;;;;;;;;17.80;91.60;;;;;;6126606;23;19912;-67
2022/11/07 13:05:34;;;;;;;;;;;17.60;93.00;;;;;;6100740;23;19912;-67
2022/11/07 13:08:09;;;;;;;;;;;17.50;93.50;;;;;;6100960;23;19912;-67
2022/11/07 13:10:47;;;;;;;;;;;17.50;94.30;;;;;;6101074;23;19909;-67
2022/11/07 13:13:19;;;;;;;;;;;17.40;94.40;;;;;;6100683;23;19905;-67
2022/11/07 13:15:46;;;;;;;;;;;17.30;94.60;;;;;;6100715;23;20280;-67
2022/11/07 13:18:20;;;;;;;;;;;17.30;94.40;;;;;;6126112;23;19913;-67
2022/11/07 13:20:46;;;;;;;;;;;17.30;94.70;;;;;;6126505;23;19936;-67
2022/11/07 13:23:14;;;;;;;;;;;17.30;94.90;;;;;;6126351;23;19905;-67
2022/11/07 13:25:41;;;;;;;;;;;17.20;94.90;;;;;;6100704;23;19988;-67
2022/11/07 13:28:24;;;;;;;;;;;17.20;94.70;;;;;;6100748;23;19912;-67
2022/11/07 13:30:55;;;;;;;;;;;17.10;94.70;;;;;;6100736;23;20173;-67
2022/11/07 13:33:25;;;;;;;;;;;17.10;94.80;;;;;;6126116;23;19905;-66
2022/11/07 13:35:53;;;;;;;;;;;17.00;94.70;;;;;;6126433;23;19909;-67
2022/11/07 13:38:22;;;;;;;;;;;17.10;94.80;;;;;;6126221;23;19928;-67
2022/11/07 13:40:51;;;;;;;;;;;17.10;94.90;;;;;;6100516;23;19983;-67
2022/11/07 13:43:22;;;;;;;;;;;17.10;94.90;;;;;;6125877;23;19912;-67
2022/11/07 13:45:49;;;;;;;;;;;17.20;95.00;;;;;;6100143;23;19905;-67
2022/11/07 13:48:17;;;;;;;;;;;17.20;95.00;;;;;;6100033;23;19952;-67
2022/11/07 13:50:54;;;;;;;;;;;17.20;94.80;;;;;;6100678;23;19905;-67
2022/11/07 13:53:23;;;;;;;;;;;17.20;94.80;;;;;;6100411;23;19905;-67
2022/11/07 13:56:01;;;;;;;;;;;17.20;94.90;;;;;;6100409;23;19908;-66
2022/11/07 13:58:27;;;;;;;;;;;17.20;94.50;;;;;;6100168;23;19917;-66
2022/11/07 14:00:54;;;;;;;;;;;17.20;94.30;;;;;;6100008;23;19932;-66
2022/11/07 14:03:27;;;;;;;;;;;17.20;94.20;;;;;;6125722;23;19919;-66
2022/11/07 14:05:54;;;;;;;;;;;17.20;94.00;;;;;;6100060;23;19905;-66
2022/11/07 14:08:49;;;;;;;;;;;17.20;93.90;;;;;;6125755;23;20387;-66
2022/11/07 14:11:17;;;;;;;;;;;17.20;93.90;;;;;;6107226;23;19912;-67
2022/11/07 14:13:45;;;;;;;;;;;17.20;93.70;;;;;;6100487;23;19909;-66
2022/11/07 14:16:25;;;;;;;;;;;17.20;93.60;;;;;;6100277;23;19913;-66
2022/11/07 14:19:01;;;;;;;;;;;17.20;93.50;;;;;;6075444;23;19972;-67
2022/11/07 14:21:29;;;;;;;;;;;17.20;93.70;;;;;;6100190;23;19946;-67
2022/11/07 14:23:56;;;;;;;;;;;17.20;93.40;;;;;;6126250;23;19909;-66
2022/11/07 14:26:32;;;;;;;;;;;17.20;93.40;;;;;;6125946;23;20272;-66
2022/11/07 14:28:59;;;;;;;;;;;17.20;93.40;;;;;;6125413;23;19909;-67
2022/11/07 14:31:30;;;;;;;;;;;17.20;93.40;;;;;;6125694;23;19909;-66
2022/11/07 14:33:58;;;;;;;;;;;17.30;93.30;;;;;;6126221;23;20309;-66
2022/11/07 16:49:32;;;;;;;;;;;17.30;87.30;;;;;;6122162;23;19995;-65
2022/11/07 16:51:59;;;;;;;;;;;17.30;87.50;;;;;;6101073;23;19967;-65
2022/11/07 16:54:25;;;;;;;;;;;17.30;87.10;;;;;;6126942;23;19904;-65
2022/11/07 16:56:52;;;;;;;;;;;17.20;87.10;;;;;;6126550;23;20332;-65
2022/11/07 16:59:20;;;;;;;;;;;17.20;87.80;;;;;;6126311;23;20285;-65
2022/11/07 17:01:47;;;;;;;;;;;17.20;87.10;;;;;;6126512;23;19905;-65
2022/11/07 17:04:14;;;;;;;;;;;17.30;88.10;;;;;;6101420;23;19984;-65
2022/11/07 17:06:46;;;;;;;;;;;17.30;88.30;;;;;;6126403;23;19915;-65
2022/11/07 17:09:15;;;;;;;;;;;17.30;88.00;;;;;;6101361;23;19905;-65
2022/11/07 17:11:42;;;;;;;;;;;17.30;88.00;;;;;;6100981;23;19948;-65
2022/11/07 17:14:09;;;;;;;;;;;17.30;87.60;;;;;;6126391;23;19905;-65
2022/11/07 17:16:35;;;;;;;;;;;17.30;87.80;;;;;;6126193;23;19913;-65
2022/11/07 17:19:03;;;;;;;;;;;17.30;88.20;;;;;;6126557;23;19905;-65
2022/11/07 17:21:29;;;;;;;;;;;17.30;88.10;;;;;;6125937;23;19913;-65
2022/11/07 17:23:57;;;;;;;;;;;17.30;87.60;;;;;;6126325;23;19905;-65
2022/11/07 17:26:24;;;;;;;;;;;17.30;87.80;;;;;;6126312;23;19951;-65
2022/11/07 17:28:51;;;;;;;;;;;17.30;87.60;;;;;;6126345;23;19955;-66
2022/11/07 17:31:17;;;;;;;;;;;17.30;88.50;;;;;;6099748;23;19948;-65
2022/11/07 17:33:44;;;;;;;;;;;17.30;88.80;;;;;;6126334;23;20369;-65
2022/11/07 17:36:31;;;;;;;;;;;17.20;88.60;;;;;;6125816;23;19988;-65
2022/11/07 17:38:57;;;;;;;;;;;17.20;88.70;;;;;;6099797;23;20309;-65
2022/11/07 17:41:27;;;;;;;;;;;17.20;88.40;;;;;;6125682;23;19943;-65
2022/11/07 17:43:54;;;;;;;;;;;17.20;88.80;;;;;;6126425;23;19905;-65
2022/11/07 17:46:24;;;;;;;;;;;17.10;88.40;;;;;;6126475;23;19980;-65
2022/11/07 17:48:50;;;;;;;;;;;17.10;88.50;;;;;;6122364;23;20007;-65
2022/11/07 17:51:17;;;;;;;;;;;17.10;88.40;;;;;;6120899;23;20003;-65
2022/11/07 17:53:43;;;;;;;;;;;17.00;88.80;;;;;;6124878;23;19905;-65
2022/11/07 17:56:19;;;;;;;;;;;17.10;89.70;;;;;;6125384;23;19909;-65
2022/11/07 17:58:47;;;;;;;;;;;17.10;88.70;;;;;;6125204;23;19936;-66
2022/11/07 18:01:19;;;;;;;;;;;17.10;88.70;;;;;;6099648;23;19909;-65
2022/11/07 18:03:48;;;;;;;;;;;17.10;89.10;;;;;;6125426;23;20255;-65
2022/11/07 18:06:14;;;;;;;;;;;17.10;88.90;;;;;;6100249;23;19992;-65
2022/11/07 18:08:44;;;;;;;;;;;17.10;88.80;;;;;;6125901;23;19916;-65
2022/11/07 18:11:11;;;;;;;;;;;17.10;89.40;;;;;;6100736;23;19905;-65
2022/11/07 18:13:38;;;;;;;;;;;17.00;88.60;;;;;;6098753;23;20223;-65
2022/11/07 18:16:08;;;;;;;;;;;17.00;88.90;;;;;;6125812;23;19916;-65
2022/11/07 18:18:34;;;;;;;;;;;17.00;88.00;;;;;;6125803;23;19920;-65
2022/11/07 18:21:01;;;;;;;;;;;16.90;87.80;;;;;;6099266;23;19905;-65
2022/11/07 18:23:28;;;;;;;;;;;16.90;88.10;;;;;;6125936;23;19905;-64
2022/11/07 18:26:07;;;;;;;;;;;16.90;88.10;;;;;;6125672;23;19905;-65
2022/11/07 18:28:35;;;;;;;;;;;16.90;88.20;;;;;;6100053;23;19905;-64
2022/11/07 18:31:02;;;;;;;;;;;16.80;88.50;;;;;;6125623;23;19928;-64
2022/11/07 18:33:29;;;;;;;;;;;16.90;88.60;;;;;;6125852;23;19905;-65
2022/11/07 18:35:57;;;;;;;;;;;16.80;88.80;;;;;;6125913;23;19912;-65
2022/11/07 18:38:23;;;;;;;;;;;16.80;88.40;;;;;;6125782;23;19979;-65
2022/11/07 18:41:19;;;;;;;;;;;16.80;88.60;;;;;;6125727;23;20320;-65
2022/11/07 18:43:46;;;;;;;;;;;16.80;88.50;;;;;;6112793;23;19913;-65
2022/11/07 18:46:17;;;;;;;;;;;16.80;88.40;;;;;;6125841;23;20209;-64
2022/11/07 18:48:44;;;;;;;;;;;16.80;88.70;;;;;;6100316;23;19917;-65
2022/11/07 18:51:11;;;;;;;;;;;16.80;88.60;;;;;;6099763;23;19936;-65
2022/11/07 18:53:38;;;;;;;;;;;16.80;88.90;;;;;;6075605;23;20351;-65
2022/11/07 18:56:05;;;;;;;;;;;16.80;88.80;;;;;;6099688;23;20252;-65
2022/11/07 18:58:33;;;;;;;;;;;16.80;88.20;;;;;;6125627;23;19912;-65
2022/11/07 19:01:03;;;;;;;;;;;16.80;88.20;;;;;;6125365;23;19905;-65
2022/11/07 19:03:30;;;;;;;;;;;16.90;88.20;;;;;;6125737;23;19937;-65
2022/11/07 19:05:59;;;;;;;;;;;16.90;88.30;;;;;;6125710;23;19911;-62
2022/11/07 19:08:28;;;;;;;;;;;16.90;88.20;;;;;;6125273;23;20320;-62
2022/11/07 19:10:57;;;;;;;;;;;16.90;88.20;;;;;;6100132;23;19909;-65
2022/11/07 19:13:24;;;;;;;;;;;16.90;88.70;;;;;;6125597;23;19906;-64
2022/11/07 19:15:51;;;;;;;;;;;17.00;89.20;;;;;;6125405;23;19941;-64
2022/11/07 19:18:18;;;;;;;;;;;16.90;89.10;;;;;;6099307;23;19913;-64
2022/11/07 19:20:44;;;;;;;;;;;17.00;89.10;;;;;;6125149;23;19912;-64
2022/11/07 19:23:11;;;;;;;;;;;17.00;88.90;;;;;;6125268;23;20104;-65
2022/11/07 19:25:41;;;;;;;;;;;17.10;88.60;;;;;;6099730;23;19962;-65
2022/11/07 19:28:08;;;;;;;;;;;17.00;88.50;;;;;;6125123;23;19985;-64
2022/11/07 19:30:34;;;;;;;;;;;17.00;88.80;;;;;;6125219;23;19912;-65
2022/11/07 19:33:01;;;;;;;;;;;17.00;88.80;;;;;;6125244;23;19904;-65
2022/11/07 19:35:29;;;;;;;;;;;17.00;88.40;;;;;;6099532;23;19909;-65
2022/11/07 19:37:56;;;;;;;;;;;17.10;88.60;;;;;;6099806;23;20245;-65
2022/11/07 19:40:23;;;;;;;;;;;17.00;88.60;;;;;;6125359;23;19905;-65
2022/11/07 19:42:50;;;;;;;;;;;17.00;88.40;;;;;;6125349;23;19909;-65
2022/11/07 19:45:17;;;;;;;;;;;17.10;88.80;;;;;;6125189;23;19933;-64
2022/11/07 19:47:44;;;;;;;;;;;17.20;88.30;;;;;;6124812;23;19919;-63
2022/11/07 19:50:10;;;;;;;;;;;17.20;88.40;;;;;;6125367;23;19905;-63
2022/11/07 19:52:37;;;;;;;;;;;17.30;88.20;;;;;;6125318;23;19916;-62
2022/11/07 19:55:04;;;;;;;;;;;17.30;87.60;;;;;;6125027;23;19912;-63
2022/11/07 19:57:30;;;;;;;;;;;17.30;88.60;;;;;;6099469;23;20317;-63
2022/11/07 19:59:57;;;;;;;;;;;17.30;88.60;;;;;;6125433;23;19905;-64
2022/11/07 20:02:24;;;;;;;;;;;17.40;88.20;;;;;;6127341;23;19937;-63
2022/11/07 20:04:50;;;;;;;;;;;17.50;88.50;;;;;;6126640;23;20316;-63
2022/11/07 20:07:17;;;;;;;;;;;17.50;88.90;;;;;;6126741;23;19911;-63
2022/11/07 20:09:43;;;;;;;;;;;17.50;88.60;;;;;;6126691;23;19979;-63
2022/11/07 20:12:10;;;;;;;;;;;17.50;89.00;;;;;;6100810;23;19956;-63
2022/11/07 20:14:37;;;;;;;;;;;17.50;88.70;;;;;;6126988;23;19912;-63
2022/11/07 20:17:04;;;;;;;;;;;17.50;88.60;;;;;;6101236;23;19932;-63
2022/11/07 20:19:32;;;;;;;;;;;17.50;87.50;;;;;;6100994;23;19980;-63
2022/11/07 20:21:59;;;;;;;;;;;17.50;87.40;;;;;;6126771;23;19987;-63
2022/11/07 20:24:26;;;;;;;;;;;17.50;87.50;;;;;;6126853;23;19960;-63
2022/11/07 20:26:53;;;;;;;;;;;17.60;87.80;;;;;;6126510;23;19912;-63
2022/11/07 20:29:21;;;;;;;;;;;17.70;88.20;;;;;;6126770;23;20268;-63
2022/11/07 20:31:48;;;;;;;;;;;17.70;88.20;;;;;;6101350;23;19967;-63
2022/11/07 20:34:15;;;;;;;;;;;17.70;87.70;;;;;;6100752;23;19937;-63
2022/11/07 20:36:42;;;;;;;;;;;17.70;87.50;;;;;;6126375;23;20213;-63
2022/11/07 20:39:09;;;;;;;;;;;17.80;87.80;;;;;;6126461;23;19912;-63
2022/11/07 20:41:36;;;;;;;;;;;17.80;88.40;;;;;;6101031;23;19905;-63
2022/11/07 20:44:04;;;;;;;;;;;17.80;88.10;;;;;;6101193;23;19905;-64
2022/11/07 20:46:31;;;;;;;;;;;17.80;87.70;;;;;;6100686;23;19905;-63
2022/11/07 20:48:58;;;;;;;;;;;17.80;88.20;;;;;;6125906;23;19936;-63
2022/11/07 20:51:25;;;;;;;;;;;17.90;88.30;;;;;;6126360;23;19905;-63
2022/11/07 20:53:52;;;;;;;;;;;17.80;86.90;;;;;;6126334;23;19905;-63
2022/11/07 20:56:19;;;;;;;;;;;18.00;86.90;;;;;;6126113;23;19909;-62
2022/11/07 20:58:45;;;;;;;;;;;18.00;87.70;;;;;;6126165;23;20244;-62
2022/11/07 21:01:13;;;;;;;;;;;18.00;87.40;;;;;;6100787;23;19905;-62
2022/11/07 21:03:40;;;;;;;;;;;18.00;87.70;;;;;;6125718;23;20288;-62
2022/11/07 21:06:10;;;;;;;;;;;18.00;87.90;;;;;;6126171;23;20304;-62
2022/11/07 21:08:37;;;;;;;;;;;18.10;88.20;;;;;;6125580;23;19912;-62
2022/11/07 21:11:04;;;;;;;;;;;18.10;87.30;;;;;;6100391;23;19987;-63
2022/11/07 21:13:31;;;;;;;;;;;18.20;87.60;;;;;;6126439;23;20004;-62
2022/11/07 21:15:57;;;;;;;;;;;18.30;87.30;;;;;;6126287;23;19905;-62
2022/11/07 21:18:24;;;;;;;;;;;18.30;87.50;;;;;;6125875;23;19948;-62
2022/11/07 21:20:50;;;;;;;;;;;18.30;86.40;;;;;;6126267;23;20225;-62
2022/11/07 21:23:17;;;;;;;;;;;18.30;86.90;;;;;;6126519;23;19909;-62
2022/11/07 21:25:44;;;;;;;;;;;18.30;86.70;;;;;;6125641;23;20217;-62
2022/11/07 21:28:11;;;;;;;;;;;18.40;87.00;;;;;;6126167;23;19905;-62
2022/11/07 21:30:38;;;;;;;;;;;18.40;86.50;;;;;;6099940;23;20032;-62
2022/11/07 21:33:05;;;;;;;;;;;18.40;86.30;;;;;;6126160;23;19912;-62
2022/11/07 21:35:32;;;;;;;;;;;18.30;85.20;;;;;;6126274;23;19987;-65
2022/11/07 21:37:58;;;;;;;;;;;18.40;85.90;;;;;;6125822;23;19913;-62
2022/11/07 21:40:25;;;;;;;;;;;18.70;87.50;;;;;;6125792;23;19936;-62
2022/11/07 21:42:53;;;;;;;;;;;18.80;87.70;;;;;;6125609;23;19905;-62
2022/11/07 21:45:21;;;;;;;;;;;19.00;85.50;;;;;;6125940;23;19984;-62
2022/11/07 21:47:47;;;;;;;;;;;18.90;82.80;;;;;;6125643;23;19913;-62
2022/11/07 21:50:16;;;;;;;;;;;19.10;84.70;;;;;;6125995;23;19912;-62
2022/11/07 21:52:43;;;;;;;;;;;19.10;84.60;;;;;;6125947;23;19946;-63
2022/11/07 21:55:10;;;;;;;;;;;19.00;83.60;;;;;;6125859;23;19976;-63
2022/11/07 21:57:37;;;;;;;;;;;19.00;84.70;;;;;;6125908;23;19969;-63
2022/11/07 22:00:04;;;;;;;;;;;19.10;84.80;;;;;;6125711;23;19980;-63
2022/11/07 22:02:31;;;;;;;;;;;19.00;83.90;;;;;;6125915;23;19976;-62
2022/11/07 22:04:57;;;;;;;;;;;19.00;82.90;;;;;;6125907;23;19908;-63
2022/11/07 22:07:24;;;;;;;;;;;19.00;82.50;;;;;;6124235;23;19955;-62
2022/11/07 22:09:51;;;;;;;;;;;19.30;83.40;;;;;;6125686;23;20284;-63
2022/11/07 22:12:17;;;;;;;;;;;19.50;83.90;;;;;;6125421;23;19905;-62
2022/11/07 22:14:47;;;;;;;;;;;19.50;83.70;;;;;;6124893;23;19905;-63
2022/11/07 22:17:14;;;;;;;;;;;19.50;83.30;;;;;;6124860;23;19920;-63
2022/11/07 22:19:41;;;;;;;;;;;19.60;80.50;;;;;;6123818;23;19909;-63
2022/11/07 22:22:07;;;;;;;;;;;19.70;80.00;;;;;;6124951;23;20240;-63
2022/11/07 22:24:34;;;;;;;;;;;19.70;77.30;;;;;;6124942;23;19905;-62
2022/11/07 22:27:00;;;;;;;;;;;19.70;75.60;;;;;;6125678;23;19909;-63